createdAt,value
2018-12-12T00:01:37.734Z,79.10
2018-12-12T00:04:11.982Z,79.20
2018-12-12T00:06:47.153Z,78.90
2018-12-12T00:09:22.150Z,78.80
2018-12-12T00:11:56.765Z,78.80
2018-12-12T00:14:31.326Z,79.60
2018-12-12T00:17:05.456Z,78.70
2018-12-12T00:19:39.669Z,78.60
2018-12-12T00:22:13.506Z,78.40
2018-12-12T00:24:48.911Z,78.30
2018-12-12T00:27:22.835Z,78.40
2018-12-12T00:29:57.276Z,78.30
2018-12-12T00:32:31.932Z,78.10
2018-12-12T00:35:05.863Z,78.20
2018-12-12T00:37:40.163Z,78.10
2018-12-12T00:40:14.031Z,78.10
2018-12-12T00:42:49.185Z,77.90
2018-12-12T00:45:23.124Z,77.90
2018-12-12T00:47:57.049Z,77.80
2018-12-12T00:50:32.616Z,77.70
2018-12-12T00:53:06.221Z,77.70
2018-12-12T00:55:40.571Z,77.80
2018-12-12T00:58:22.161Z,77.70
2018-12-12T01:01:00.792Z,77.80
2018-12-12T01:03:35.518Z,77.80
2018-12-12T01:06:09.531Z,77.80
2018-12-12T01:08:43.120Z,77.80
2018-12-12T01:11:21.590Z,77.60
2018-12-12T01:13:57.217Z,77.40
2018-12-12T01:16:31.996Z,77.10
2018-12-12T01:19:05.734Z,77.00
2018-12-12T01:21:40.096Z,76.90
2018-12-12T01:24:14.399Z,76.90
2018-12-12T01:26:48.256Z,76.70
2018-12-12T01:29:22.048Z,76.50
2018-12-12T01:31:56.989Z,76.80
2018-12-12T01:34:30.686Z,76.50
2018-12-12T01:37:05.693Z,76.30
2018-12-12T01:39:39.790Z,76.40
2018-12-12T01:42:13.580Z,76.40
2018-12-12T01:44:47.176Z,76.10
2018-12-12T01:47:21.136Z,76.00
2018-12-12T01:49:56.203Z,76.70
2018-12-12T01:52:31.489Z,76.00
2018-12-12T01:55:08.525Z,75.60
2018-12-12T01:57:42.672Z,75.60
2018-12-12T02:00:20.127Z,75.50
2018-12-12T02:02:53.898Z,75.40
2018-12-12T02:05:29.291Z,75.40
2018-12-12T02:08:03.327Z,75.10
2018-12-12T02:10:38.498Z,74.20
2018-12-12T02:13:21.189Z,74.50
2018-12-12T02:15:56.818Z,74.40
2018-12-12T02:18:33.454Z,74.20
2018-12-12T02:21:07.338Z,74.10
2018-12-12T02:23:41.446Z,73.90
2018-12-12T02:26:17.630Z,73.90
2018-12-12T02:28:51.698Z,73.80
2018-12-12T02:31:26.018Z,73.80
2018-12-12T02:34:01.120Z,73.70
2018-12-12T02:36:34.943Z,73.80
2018-12-12T02:39:08.394Z,73.70
2018-12-12T02:41:42.790Z,73.50
2018-12-12T02:44:16.596Z,73.50
2018-12-12T02:46:50.370Z,73.50
2018-12-12T02:49:23.934Z,73.40
2018-12-12T02:51:57.815Z,73.50
2018-12-12T02:54:33.889Z,73.30
2018-12-12T02:57:07.570Z,73.10
2018-12-12T02:59:41.838Z,73.10
2018-12-12T03:02:16.705Z,73.20
2018-12-12T03:04:50.345Z,73.20
2018-12-12T03:07:24.519Z,72.80
2018-12-12T03:09:58.963Z,72.80
2018-12-12T03:12:32.845Z,73.00
2018-12-12T03:15:07.773Z,72.80
2018-12-12T03:17:42.108Z,72.90
2018-12-12T03:20:16.157Z,73.30
2018-12-12T03:22:51.366Z,73.30
2018-12-12T03:25:25.458Z,73.30
2018-12-12T03:27:59.310Z,73.30
2018-12-12T03:30:33.326Z,73.40
2018-12-12T03:33:07.889Z,73.10
2018-12-12T03:35:43.881Z,72.70
2018-12-12T03:38:17.987Z,72.20
2018-12-12T03:40:52.124Z,71.90
2018-12-12T03:43:26.398Z,72.20
2018-12-12T03:46:00.808Z,71.90
2018-12-12T03:48:34.682Z,71.80
2018-12-12T03:51:08.599Z,71.60
2018-12-12T03:53:43.214Z,71.40
2018-12-12T03:56:18.671Z,71.20
2018-12-12T03:58:52.490Z,71.30
2018-12-12T04:01:26.646Z,71.50
2018-12-12T04:04:01.861Z,71.00
2018-12-12T04:06:37.125Z,70.70
2018-12-12T04:09:12.320Z,70.90
2018-12-12T04:11:46.745Z,70.70
2018-12-12T04:14:20.479Z,70.10
2018-12-12T04:16:55.674Z,70.10
2018-12-12T04:19:29.809Z,70.50
2018-12-12T04:22:03.883Z,70.30
2018-12-12T04:24:38.687Z,69.20
2018-12-12T04:27:13.031Z,69.50
2018-12-12T04:29:46.896Z,68.70
2018-12-12T04:32:21.043Z,68.50
2018-12-12T04:34:54.856Z,68.40
2018-12-12T04:37:29.233Z,68.70
2018-12-12T04:40:03.233Z,68.30
2018-12-12T04:42:37.172Z,68.60
2018-12-12T04:45:13.665Z,69.30
2018-12-12T04:47:47.256Z,68.60
2018-12-12T04:50:21.374Z,68.50
2018-12-12T04:52:55.748Z,68.30
2018-12-12T04:55:32.041Z,68.40
2018-12-12T04:58:07.727Z,68.70
2018-12-12T05:00:42.013Z,68.70
2018-12-12T05:03:16.852Z,68.10
2018-12-12T05:05:52.338Z,68.00
2018-12-12T05:08:30.900Z,67.60
2018-12-12T05:11:08.634Z,66.10
2018-12-12T05:13:44.534Z,66.20
2018-12-12T05:16:19.931Z,65.80
2018-12-12T05:18:55.282Z,66.20
2018-12-12T05:21:29.742Z,65.30
2018-12-12T05:24:03.779Z,65.40
2018-12-12T05:26:37.846Z,64.80
2018-12-12T05:29:11.765Z,64.70
2018-12-12T05:31:47.370Z,64.60
2018-12-12T05:34:21.168Z,64.20
2018-12-12T05:36:58.865Z,63.50
2018-12-12T05:39:32.585Z,63.10
2018-12-12T05:42:07.792Z,63.20
2018-12-12T05:44:41.630Z,63.30
2018-12-12T05:47:17.260Z,63.20
2018-12-12T05:49:51.744Z,63.30
2018-12-12T05:52:25.745Z,62.30
2018-12-12T05:55:01.538Z,61.50
2018-12-12T05:57:36.410Z,61.10
2018-12-12T06:00:13.015Z,60.80
2018-12-12T06:02:47.203Z,60.60
2018-12-12T06:05:21.085Z,61.60
2018-12-12T06:07:59.028Z,60.90
2018-12-12T06:10:32.872Z,61.40
2018-12-12T06:13:06.823Z,61.70
2018-12-12T06:15:40.591Z,61.90
2018-12-12T06:18:14.717Z,61.50
2018-12-12T06:20:48.414Z,61.40
2018-12-12T06:23:22.704Z,61.10
2018-12-12T06:25:58.138Z,60.20
2018-12-12T06:28:34.229Z,58.80
2018-12-12T06:31:09.234Z,59.10
2018-12-12T06:33:42.749Z,58.40
2018-12-12T06:36:16.672Z,58.50
2018-12-12T06:38:49.843Z,58.50
2018-12-12T06:41:24.015Z,58.40
2018-12-12T06:43:59.066Z,58.20
2018-12-12T06:46:32.858Z,58.10
2018-12-12T06:49:06.925Z,58.00
2018-12-12T06:54:25.101Z,57.90
2018-12-12T06:56:58.869Z,58.10
2018-12-12T06:59:32.746Z,58.10
2018-12-12T07:02:06.755Z,58.20
2018-12-12T07:04:40.687Z,58.00
2018-12-12T07:07:14.893Z,57.60
2018-12-12T07:09:49.914Z,58.10
2018-12-12T07:12:23.565Z,57.30
2018-12-12T07:14:57.482Z,57.20
2018-12-12T07:17:31.349Z,57.50
2018-12-12T07:20:06.043Z,57.20
2018-12-12T07:22:41.564Z,57.30
2018-12-12T07:25:15.808Z,57.20
2018-12-12T07:27:50.962Z,57.00
2018-12-12T07:30:25.134Z,57.30
2018-12-12T07:32:58.902Z,57.60
2018-12-12T07:35:33.354Z,57.40
2018-12-12T07:38:07.623Z,57.80
2018-12-12T07:40:43.826Z,57.50
2018-12-12T07:43:17.614Z,58.10
2018-12-12T07:45:53.376Z,57.30
2018-12-12T07:48:31.679Z,57.50
2018-12-12T07:51:09.792Z,57.50
2018-12-12T07:53:45.102Z,57.00
2018-12-12T07:56:20.008Z,56.90
2018-12-12T07:58:55.138Z,57.10
2018-12-12T08:01:29.297Z,57.30
2018-12-12T08:04:03.527Z,57.20
2018-12-12T08:06:38.347Z,57.00
2018-12-12T08:09:13.083Z,56.60
2018-12-12T08:11:48.481Z,56.80
2018-12-12T08:14:22.897Z,56.60
2018-12-12T08:16:58.569Z,56.50
2018-12-12T08:19:35.223Z,56.20
2018-12-12T08:22:11.314Z,56.40
2018-12-12T08:24:45.655Z,56.20
2018-12-12T08:27:20.968Z,56.20
2018-12-12T08:29:57.952Z,55.80
2018-12-12T08:32:33.026Z,55.70
2018-12-12T08:35:06.942Z,56.10
2018-12-12T08:37:41.020Z,56.20
2018-12-12T08:40:17.320Z,56.60
2018-12-12T08:42:51.422Z,56.70
2018-12-12T08:45:25.489Z,56.60
2018-12-12T08:47:59.882Z,56.60
2018-12-12T08:50:35.076Z,56.50
2018-12-12T08:53:10.766Z,56.10
2018-12-12T08:55:47.234Z,56.20
2018-12-12T08:58:21.554Z,56.20
2018-12-12T09:01:00.795Z,56.40
2018-12-12T09:03:36.006Z,56.50
2018-12-12T09:06:10.200Z,56.50
2018-12-12T09:08:44.139Z,56.30
2018-12-12T09:11:18.499Z,56.20
2018-12-12T09:13:55.633Z,56.40
2018-12-12T09:16:30.033Z,56.50
2018-12-12T09:19:03.874Z,56.10
2018-12-12T09:21:37.809Z,56.30
2018-12-12T09:24:12.159Z,56.60
2018-12-12T09:26:45.715Z,56.60
2018-12-12T09:29:19.917Z,56.70
2018-12-12T09:31:54.492Z,56.60
2018-12-12T09:34:28.325Z,56.70
2018-12-12T09:37:02.475Z,56.80
2018-12-12T09:39:37.341Z,56.70
2018-12-12T09:42:11.448Z,56.60
2018-12-12T09:44:45.358Z,56.70
2018-12-12T09:47:19.415Z,56.80
2018-12-12T09:49:53.337Z,56.80
2018-12-12T09:52:27.582Z,56.80
2018-12-12T09:55:01.802Z,57.00
2018-12-12T09:57:35.864Z,57.20
2018-12-12T10:00:10.561Z,57.10
2018-12-12T10:02:44.541Z,57.20
2018-12-12T10:05:19.258Z,57.20
2018-12-12T10:07:52.999Z,57.30
2018-12-12T10:10:26.800Z,57.40
2018-12-12T10:13:04.031Z,57.50
2018-12-12T10:15:39.803Z,57.40
2018-12-12T10:18:13.729Z,57.40
2018-12-12T10:20:47.673Z,57.20
2018-12-12T10:23:22.633Z,56.80
2018-12-12T10:25:56.352Z,57.10
2018-12-12T10:28:30.228Z,57.20
2018-12-12T10:31:04.561Z,57.30
2018-12-12T10:33:38.582Z,57.30
2018-12-12T10:36:12.653Z,57.40
2018-12-12T10:38:52.360Z,57.40
2018-12-12T10:41:33.488Z,57.50
2018-12-12T10:44:07.732Z,57.60
2018-12-12T10:46:42.661Z,57.50
2018-12-12T10:49:16.803Z,57.60
2018-12-12T10:51:52.747Z,57.70
2018-12-12T10:54:26.873Z,57.70
2018-12-12T10:57:01.916Z,57.80
2018-12-12T10:59:36.171Z,57.80
2018-12-12T11:02:14.112Z,57.90
2018-12-12T11:04:48.291Z,58.00
2018-12-12T11:07:21.974Z,58.10
2018-12-12T11:09:56.081Z,58.20
2018-12-12T11:12:31.747Z,58.20
2018-12-12T11:15:05.860Z,58.40
2018-12-12T11:17:41.356Z,58.30
2018-12-12T11:20:15.076Z,59.00
2018-12-12T11:22:48.853Z,58.30
2018-12-12T11:25:23.651Z,58.30
2018-12-12T11:27:57.850Z,58.30
2018-12-12T11:30:31.782Z,58.40
2018-12-12T11:33:05.802Z,58.50
2018-12-12T11:35:39.870Z,58.50
2018-12-12T11:38:13.974Z,58.60
2018-12-12T11:40:48.035Z,58.60
2018-12-12T11:43:22.355Z,58.50
2018-12-12T11:45:56.971Z,58.60
2018-12-12T11:48:31.962Z,58.70
2018-12-12T11:51:06.356Z,58.70
2018-12-12T11:53:43.082Z,58.70
2018-12-12T11:56:16.861Z,58.80
2018-12-12T11:58:50.893Z,58.90
2018-12-12T12:01:25.846Z,59.10
2018-12-12T12:03:59.826Z,59.20
2018-12-12T12:06:34.021Z,59.20
2018-12-12T12:09:11.170Z,59.40
2018-12-12T12:11:46.246Z,59.40
2018-12-12T12:14:20.488Z,59.40
2018-12-12T12:16:54.533Z,59.60
2018-12-12T12:19:29.411Z,59.50
2018-12-12T12:22:03.175Z,59.60
2018-12-12T12:24:37.826Z,59.70
2018-12-12T12:27:11.428Z,59.90
2018-12-12T12:29:46.066Z,60.00
2018-12-12T12:32:19.816Z,60.10
2018-12-12T12:34:57.342Z,60.20
2018-12-12T12:37:31.735Z,60.20
2018-12-12T12:40:06.826Z,60.50
2018-12-12T12:42:41.297Z,60.60
2018-12-12T12:45:15.372Z,61.80
2018-12-12T12:47:49.529Z,61.20
2018-12-12T12:50:23.352Z,61.40
2018-12-12T12:52:57.564Z,61.70
2018-12-12T12:55:31.674Z,62.20
2018-12-12T12:58:06.152Z,62.40
2018-12-12T13:00:40.876Z,62.60
2018-12-12T13:03:15.585Z,63.00
2018-12-12T13:05:49.127Z,63.30
2018-12-12T13:08:22.886Z,63.30
2018-12-12T13:10:56.846Z,63.50
2018-12-12T13:13:31.044Z,63.40
2018-12-12T13:16:05.074Z,63.50
2018-12-12T13:18:38.970Z,63.60
2018-12-12T13:21:14.345Z,64.30
2018-12-12T13:23:47.846Z,63.50
2018-12-12T13:26:23.200Z,63.80
2018-12-12T13:28:58.024Z,63.80
2018-12-12T13:31:34.321Z,64.30
2018-12-12T13:34:08.084Z,64.30
2018-12-12T13:36:42.524Z,65.30
2018-12-12T13:39:16.539Z,64.60
2018-12-12T13:41:50.302Z,65.10
2018-12-12T13:44:25.282Z,63.90
2018-12-12T13:46:59.423Z,64.90
2018-12-12T13:49:33.876Z,65.90
2018-12-12T13:52:09.642Z,65.10
2018-12-12T13:54:43.609Z,65.50
2018-12-12T13:57:17.744Z,65.20
2018-12-12T13:59:51.981Z,65.20
2018-12-12T14:02:27.817Z,65.30
2018-12-12T14:05:02.801Z,65.30
2018-12-12T14:07:38.959Z,65.40
2018-12-12T14:10:15.218Z,65.30
2018-12-12T14:12:51.252Z,65.30
2018-12-12T14:15:25.208Z,66.20
2018-12-12T14:17:59.463Z,65.30
2018-12-12T14:20:34.014Z,65.40
2018-12-12T14:23:08.994Z,65.40
2018-12-12T14:25:42.776Z,66.10
2018-12-12T14:28:16.902Z,65.10
2018-12-12T14:30:50.905Z,65.00
2018-12-12T14:33:25.097Z,64.90
2018-12-12T14:36:01.194Z,64.90
2018-12-12T14:38:34.958Z,64.90
2018-12-12T14:41:08.665Z,65.00
2018-12-12T14:43:43.518Z,64.90
2018-12-12T14:46:19.055Z,64.80
2018-12-12T14:48:52.775Z,64.70
2018-12-12T14:51:26.640Z,64.70
2018-12-12T14:54:01.017Z,65.70
2018-12-12T14:56:36.294Z,64.60
2018-12-12T14:59:10.756Z,65.50
2018-12-12T15:01:45.024Z,64.70
2018-12-12T15:04:18.748Z,64.90
2018-12-12T15:06:53.234Z,64.70
2018-12-12T15:09:27.122Z,64.80
2018-12-12T15:12:01.418Z,64.70
2018-12-12T15:14:37.108Z,64.70
2018-12-12T15:17:12.732Z,64.70
2018-12-12T15:19:47.800Z,64.80
2018-12-12T15:22:21.949Z,64.80
2018-12-12T15:24:56.598Z,64.70
2018-12-12T15:27:31.418Z,64.70
2018-12-12T15:30:06.078Z,64.50
2018-12-12T15:32:42.052Z,64.50
2018-12-12T15:35:17.315Z,64.60
2018-12-12T15:37:52.506Z,64.50
2018-12-12T15:40:26.545Z,64.50
2018-12-12T15:43:01.191Z,64.50
2018-12-12T15:45:36.914Z,64.60
2018-12-12T15:48:12.024Z,64.70
2018-12-12T15:50:45.985Z,64.60
2018-12-12T15:53:21.086Z,64.70
2018-12-12T15:55:55.090Z,64.80
2018-12-12T15:58:29.538Z,64.80
2018-12-12T16:01:03.766Z,64.90
2018-12-12T16:03:37.669Z,64.80
2018-12-12T16:06:11.621Z,65.00
2018-12-12T16:08:46.528Z,65.00
2018-12-12T16:11:25.132Z,65.10
2018-12-12T16:14:00.933Z,65.10
2018-12-12T16:16:34.965Z,64.20
2018-12-12T16:19:09.527Z,65.10
2018-12-12T16:21:44.541Z,65.10
2018-12-12T16:24:23.600Z,66.10
2018-12-12T16:26:58.503Z,65.30
2018-12-12T16:29:32.698Z,65.40
2018-12-12T16:32:07.244Z,65.60
2018-12-12T16:34:41.568Z,65.90
2018-12-12T16:37:15.992Z,65.70
2018-12-12T16:39:52.100Z,65.80
2018-12-12T16:42:28.858Z,65.80
2018-12-12T16:45:04.479Z,65.70
2018-12-12T16:47:43.192Z,65.90
2018-12-12T16:50:18.586Z,65.80
2018-12-12T16:52:53.148Z,65.80
2018-12-12T16:55:27.155Z,65.90
2018-12-12T16:58:03.162Z,65.90
2018-12-12T17:00:38.799Z,66.00
2018-12-12T17:03:14.002Z,66.10
2018-12-12T17:05:50.938Z,66.20
2018-12-12T17:08:26.012Z,66.40
2018-12-12T17:11:00.136Z,66.60
2018-12-12T17:13:34.714Z,66.60
2018-12-12T17:16:08.572Z,66.70
2018-12-12T17:18:44.036Z,66.80
2018-12-12T17:21:18.838Z,66.90
2018-12-12T17:23:52.677Z,66.90
2018-12-12T17:26:29.328Z,66.80
2018-12-12T17:29:06.697Z,66.80
2018-12-12T17:31:43.648Z,66.80
2018-12-12T17:34:17.732Z,66.80
2018-12-12T17:36:52.131Z,66.80
2018-12-12T17:39:27.364Z,66.90
2018-12-12T17:42:01.278Z,66.90
2018-12-12T17:44:36.605Z,66.90
2018-12-12T17:47:10.775Z,66.80
2018-12-12T17:49:44.767Z,66.70
2018-12-12T17:52:21.436Z,66.70
2018-12-12T17:54:55.326Z,66.60
2018-12-12T17:57:29.451Z,66.50
2018-12-12T18:00:04.782Z,66.50
2018-12-12T18:02:39.209Z,65.90
2018-12-12T18:05:15.351Z,66.50
2018-12-12T18:07:50.244Z,66.60
2018-12-12T18:10:24.279Z,66.70
2018-12-12T18:13:01.140Z,66.60
2018-12-12T18:15:36.207Z,66.60
2018-12-12T18:18:10.793Z,66.60
2018-12-12T18:20:45.919Z,66.60
2018-12-12T18:23:21.224Z,66.60
2018-12-12T18:25:56.084Z,66.70
2018-12-12T18:28:30.292Z,66.60
2018-12-12T18:31:05.056Z,66.70
2018-12-12T18:33:39.200Z,66.80
2018-12-12T18:36:13.524Z,66.70
2018-12-12T18:38:46.905Z,66.70
2018-12-12T18:41:23.313Z,66.80
2018-12-12T18:43:58.086Z,66.90
2018-12-12T18:46:33.652Z,66.90
2018-12-12T18:49:07.480Z,66.90
2018-12-12T18:51:41.472Z,66.90
2018-12-12T18:54:15.774Z,67.00
2018-12-12T18:56:50.639Z,67.10
2018-12-12T18:59:25.626Z,67.20
2018-12-12T19:02:01.811Z,67.20
2018-12-12T19:04:37.055Z,67.30
2018-12-12T19:07:12.970Z,67.30
2018-12-12T19:09:46.877Z,67.50
2018-12-12T19:12:21.892Z,67.60
2018-12-12T19:15:00.072Z,67.80
2018-12-12T19:17:34.201Z,68.00
2018-12-12T19:20:10.842Z,68.20
2018-12-12T19:22:44.790Z,68.40
2018-12-12T19:25:19.514Z,68.60
2018-12-12T19:27:53.496Z,68.60
2018-12-12T19:30:27.896Z,68.70
2018-12-12T19:33:02.926Z,68.80
2018-12-12T19:35:36.678Z,68.80
2018-12-12T19:38:10.983Z,68.80
2018-12-12T19:40:46.716Z,68.80
2018-12-12T19:43:22.293Z,68.90
2018-12-12T19:45:57.447Z,69.10
2018-12-12T19:48:31.650Z,69.20
2018-12-12T19:51:05.732Z,69.30
2018-12-12T19:56:00.958Z,69.30
2018-12-12T19:58:35.175Z,69.70
2018-12-12T20:01:10.519Z,69.80
2018-12-12T20:03:44.320Z,69.70
2018-12-12T20:06:19.504Z,69.80
2018-12-12T20:08:54.569Z,69.80
2018-12-12T20:11:29.015Z,69.80
2018-12-12T20:14:04.005Z,69.80
2018-12-12T20:16:38.389Z,69.80
2018-12-12T20:19:12.833Z,69.70
2018-12-12T20:21:47.392Z,69.80
2018-12-12T20:24:21.732Z,69.70
2018-12-12T20:26:57.061Z,69.70
2018-12-12T20:29:31.280Z,69.60
2018-12-12T20:32:06.075Z,69.60
2018-12-12T20:34:42.005Z,69.70
2018-12-12T20:37:16.254Z,69.80
2018-12-12T20:39:50.284Z,69.80
2018-12-12T20:42:26.289Z,69.80
2018-12-12T20:45:01.275Z,69.80
2018-12-12T20:47:37.699Z,69.70
2018-12-12T20:50:12.257Z,69.70
2018-12-12T20:52:46.169Z,69.80
2018-12-12T20:55:20.090Z,69.60
2018-12-12T20:57:54.309Z,70.30
2018-12-12T21:00:32.125Z,69.40
2018-12-12T21:03:07.930Z,69.30
2018-12-12T21:05:42.409Z,69.20
2018-12-12T21:08:16.535Z,69.20
2018-12-12T21:10:50.730Z,69.20
2018-12-12T21:13:24.622Z,69.10
2018-12-12T21:15:58.846Z,68.80
2018-12-12T21:18:32.788Z,68.60
2018-12-12T21:21:07.607Z,68.50
2018-12-12T21:23:42.818Z,68.40
2018-12-12T21:26:17.459Z,68.10
2018-12-12T21:28:51.806Z,68.00
2018-12-12T21:31:28.796Z,67.60
2018-12-12T21:34:03.077Z,67.50
2018-12-12T21:36:39.965Z,67.20
2018-12-12T21:39:13.974Z,66.90
2018-12-12T21:41:47.818Z,67.00
2018-12-12T21:44:21.711Z,66.60
2018-12-12T21:46:59.121Z,66.70
2018-12-12T21:49:33.157Z,66.50
2018-12-12T21:52:07.970Z,66.60
2018-12-12T21:54:41.890Z,66.40
2018-12-12T21:57:16.775Z,66.30
2018-12-12T21:59:50.545Z,66.10
2018-12-12T22:02:24.682Z,66.00
2018-12-12T22:04:58.568Z,66.00
2018-12-12T22:07:32.553Z,66.00
2018-12-12T22:10:06.435Z,66.00
2018-12-12T22:12:40.671Z,66.00
2018-12-12T22:15:15.699Z,65.80
2018-12-12T22:17:49.474Z,65.70
2018-12-12T22:20:24.005Z,65.60
2018-12-12T22:22:58.128Z,65.60
2018-12-12T22:25:31.870Z,65.70
2018-12-12T22:28:07.203Z,65.80
2018-12-12T22:30:41.131Z,65.80
2018-12-12T22:33:15.481Z,65.80
2018-12-12T22:35:49.560Z,65.80
2018-12-12T22:38:25.828Z,65.80
2018-12-12T22:41:01.731Z,65.70
2018-12-12T22:43:36.179Z,65.50
2018-12-12T22:46:11.146Z,65.70
2018-12-12T22:48:46.074Z,65.50
2018-12-12T22:51:21.605Z,65.50
2018-12-12T22:53:56.661Z,65.30
2018-12-12T22:56:31.097Z,65.20
2018-12-12T22:59:06.303Z,65.30
2018-12-12T23:01:40.945Z,65.30
2018-12-12T23:04:14.942Z,65.20
2018-12-12T23:06:50.055Z,65.20
2018-12-12T23:09:26.617Z,65.10
2018-12-12T23:12:00.792Z,65.20
2018-12-12T23:14:34.859Z,65.20
2018-12-12T23:17:08.987Z,66.10
2018-12-12T23:19:42.377Z,65.30
2018-12-12T23:22:16.572Z,65.60
2018-12-12T23:24:50.738Z,65.50
2018-12-12T23:27:24.805Z,65.50
2018-12-12T23:29:58.995Z,65.70
2018-12-12T23:32:33.743Z,65.70
2018-12-12T23:35:10.974Z,65.70
2018-12-12T23:37:45.053Z,65.60
2018-12-12T23:40:21.488Z,65.20
2018-12-12T23:42:56.015Z,65.50
2018-12-12T23:45:31.298Z,65.30
2018-12-12T23:48:05.698Z,65.30
2018-12-12T23:50:40.162Z,65.30
2018-12-12T23:53:14.153Z,65.00
2018-12-12T23:55:48.318Z,65.10
2018-12-12T23:58:22.461Z,64.80
